Time,TemperatureF,DewpointF,PressureIn,WindDirection,WindDirectionDegrees,WindSpeedMPH,WindSpeedGustMPH,Humidity,HourlyPrecipIn,Conditions,Clouds,dailyrainin,SoftwareType,DateUTC
2013-05-03 00:13:00,56.6,42.0,30.58,SE,144,1.0,3.0,59,0.00,,,0.00,weatherlink.com 1.10,2013-05-03 04:13:00,
2013-05-03 00:28:00,56.3,42.0,30.58,NNW,332,1.0,2.0,60,0.00,,,0.00,weatherlink.com 1.10,2013-05-03 04:28:00,
2013-05-03 00:43:00,56.3,42.0,30.58,WNW,284,0.0,4.0,59,0.00,,,0.00,weatherlink.com 1.10,2013-05-03 04:43:00,
2013-05-03 00:58:00,56.5,41.0,30.58,SE,145,2.0,5.0,56,0.00,,,0.00,weatherlink.com 1.10,2013-05-03 04:58:00,
2013-05-03 01:13:00,57.0,40.0,30.58,North,355,2.0,7.0,54,0.00,,,0.00,weatherlink.com 1.10,2013-05-03 05:13:00,
2013-05-03 01:28:00,56.9,41.0,30.58,WSW,249,1.0,5.0,56,0.00,,,0.00,weatherlink.com 1.10,2013-05-03 05:28:00,
2013-05-03 01:43:00,56.5,41.0,30.59,ENE,77,1.0,5.0,57,0.00,,,0.00,weatherlink.com 1.10,2013-05-03 05:43:00,
2013-05-03 01:58:00,56.2,42.0,30.59,West,279,2.0,3.0,59,0.00,,,0.00,weatherlink.com 1.10,2013-05-03 05:58:00,
2013-05-03 02:13:00,55.8,42.0,30.59,NNW,336,3.0,5.0,60,0.00,,,0.00,weatherlink.com 1.10,2013-05-03 06:13:00,
2013-05-03 02:28:00,55.4,42.0,30.59,SW,226,2.0,4.0,61,0.00,,,0.00,weatherlink.com 1.10,2013-05-03 06:28:00,
2013-05-03 02:43:00,54.8,42.0,30.60,West,267,4.0,5.0,63,0.00,,,0.00,weatherlink.com 1.10,2013-05-03 06:43:00,
2013-05-03 02:58:00,54.4,42.0,30.60,SSE,165,0.0,5.0,64,0.00,,,0.00,weatherlink.com 1.10,2013-05-03 06:58:00,
2013-05-03 03:13:00,53.8,43.0,30.60,NW,324,1.0,4.0,66,0.00,,,0.00,weatherlink.com 1.10,2013-05-03 07:13:00,
2013-05-03 03:28:00,53.3,43.0,30.61,West,278,0.0,5.0,68,0.00,,,0.00,weatherlink.com 1.10,2013-05-03 07:28:00,
2013-05-03 03:43:00,52.9,42.0,30.61,WNW,296,1.0,3.0,67,0.00,,,0.00,weatherlink.com 1.10,2013-05-03 07:43:00,
2013-05-03 03:58:00,52.4,41.0,30.62,NNW,334,2.0,5.0,65,0.00,,,0.00,weatherlink.com 1.10,2013-05-03 07:58:00,
2013-05-03 04:13:00,52.3,39.0,30.62,SSE,162,0.0,5.0,60,0.00,,,0.00,weatherlink.com 1.10,2013-05-03 08:13:00,
2013-05-03 04:28:00,52.2,38.0,30.62,SSE,160,0.0,2.0,59,0.00,,,0.00,weatherlink.com 1.10,2013-05-03 08:28:00,
2013-05-03 04:43:00,51.9,38.0,30.63,SSE,160,0.0,2.0,59,0.00,,,0.00,weatherlink.com 1.10,2013-05-03 08:43:00,
2013-05-03 04:58:00,51.4,37.0,30.63,SSE,160,1.0,1.0,59,0.00,,,0.00,weatherlink.com 1.10,2013-05-03 08:58:00,
2013-05-03 05:13:00,50.8,37.0,30.64,SSE,164,0.0,2.0,59,0.00,,,0.00,weatherlink.com 1.10,2013-05-03 09:13:00,
2013-05-03 05:28:00,50.2,37.0,30.64,SSE,164,0.0,1.0,61,0.00,,,0.00,weatherlink.com 1.10,2013-05-03 09:28:00,
2013-05-03 05:43:00,49.3,36.0,30.64,SSE,164,0.0,0.0,61,0.00,,,0.00,weatherlink.com 1.10,2013-05-03 09:43:00,
2013-05-03 05:58:00,48.3,36.0,30.65,SSE,164,0.0,1.0,62,0.00,,,0.00,weatherlink.com 1.10,2013-05-03 09:58:00,
2013-05-03 06:13:00,48.1,36.0,30.65,SSE,164,0.0,1.0,63,0.00,,,0.00,weatherlink.com 1.10,2013-05-03 10:13:00,
2013-05-03 06:28:00,48.2,35.0,30.65,SSE,164,0.0,1.0,60,0.00,,,0.00,weatherlink.com 1.10,2013-05-03 10:28:00,
2013-05-03 06:43:00,48.5,35.0,30.65,SSE,164,1.0,1.0,61,0.00,,,0.00,weatherlink.com 1.10,2013-05-03 10:43:00,
2013-05-03 06:58:00,49.3,34.0,30.65,SSE,167,1.0,3.0,57,0.00,,,0.00,weatherlink.com 1.10,2013-05-03 10:58:00,
2013-05-03 07:13:00,50.5,35.0,30.65,NNW,344,1.0,4.0,55,0.00,,,0.00,weatherlink.com 1.10,2013-05-03 11:13:00,
2013-05-03 07:28:00,52.2,35.0,30.65,NNE,15,2.0,5.0,52,0.00,,,0.00,weatherlink.com 1.10,2013-05-03 11:28:00,
2013-05-03 07:43:00,53.1,35.0,30.65,SSE,165,0.0,6.0,50,0.00,,,0.00,weatherlink.com 1.10,2013-05-03 11:43:00,
2013-05-03 07:58:00,54.1,36.0,30.65,SW,219,2.0,5.0,50,0.00,,,0.00,weatherlink.com 1.10,2013-05-03 11:58:00,
2013-05-03 08:13:00,55.4,36.0,30.65,ESE,103,0.0,5.0,48,0.00,,,0.00,weatherlink.com 1.10,2013-05-03 12:13:00,
2013-05-03 08:28:00,56.0,35.0,30.65,NNW,339,1.0,6.0,46,0.00,,,0.00,weatherlink.com 1.10,2013-05-03 12:28:00,
2013-05-03 08:43:00,56.7,36.0,30.64,WNW,288,0.0,4.0,46,0.00,,,0.00,weatherlink.com 1.10,2013-05-03 12:43:00,
2013-05-03 08:58:00,58.4,35.0,30.65,NNW,338,3.0,5.0,42,0.00,,,0.00,weatherlink.com 1.10,2013-05-03 12:58:00,
2013-05-03 09:13:00,58.3,35.0,30.65,WSW,252,4.0,7.0,42,0.00,,,0.00,weatherlink.com 1.10,2013-05-03 13:13:00,
2013-05-03 09:28:00,60.0,35.0,30.64,South,188,2.0,9.0,39,0.00,,,0.00,weatherlink.com 1.10,2013-05-03 13:28:00,
2013-05-03 09:43:00,61.1,32.0,30.64,NNW,348,2.0,5.0,33,0.00,,,0.00,weatherlink.com 1.10,2013-05-03 13:43:00,
2013-05-03 09:58:00,61.0,32.0,30.64,South,169,0.0,7.0,34,0.00,,,0.00,weatherlink.com 1.10,2013-05-03 13:58:00,
2013-05-03 10:13:00,61.3,33.0,30.64,NE,55,1.0,4.0,35,0.00,,,0.00,weatherlink.com 1.10,2013-05-03 14:13:00,
2013-05-03 10:28:00,61.2,32.0,30.64,NNW,330,3.0,10.0,34,0.00,,,0.00,weatherlink.com 1.10,2013-05-03 14:28:00,
2013-05-03 10:43:00,62.1,32.0,30.63,WNW,296,2.0,9.0,33,0.00,,,0.00,weatherlink.com 1.10,2013-05-03 14:43:00,
2013-05-03 10:58:00,62.8,34.0,30.63,East,95,6.0,6.0,34,0.00,,,0.00,weatherlink.com 1.10,2013-05-03 14:58:00,
2013-05-03 11:14:00,64.4,34.0,30.63,East,97,2.0,7.0,32,0.00,,,0.00,weatherlink.com 1.10,2013-05-03 15:14:00,
2013-05-03 11:29:00,63.7,33.0,30.62,NE,42,0.0,4.0,32,0.00,,,0.00,weatherlink.com 1.10,2013-05-03 15:29:00,
2013-05-03 11:44:00,64.9,33.0,30.62,WNW,289,5.0,7.0,30,0.00,,,0.00,weatherlink.com 1.10,2013-05-03 15:44:00,
2013-05-03 11:59:00,65.3,33.0,30.61,West,272,3.0,6.0,30,0.00,,,0.00,weatherlink.com 1.10,2013-05-03 15:59:00,
2013-05-03 12:14:00,66.2,34.0,30.60,ENE,76,3.0,6.0,30,0.00,,,0.00,weatherlink.com 1.10,2013-05-03 16:14:00,
2013-05-03 12:29:00,68.5,33.0,30.59,WSW,242,0.0,6.0,27,0.00,,,0.00,weatherlink.com 1.10,2013-05-03 16:29:00,
2013-05-03 12:44:00,66.8,33.0,30.59,South,184,5.0,9.0,28,0.00,,,0.00,weatherlink.com 1.10,2013-05-03 16:44:00,
2013-05-03 12:59:00,66.5,32.0,30.59,West,266,4.0,7.0,28,0.00,,,0.00,weatherlink.com 1.10,2013-05-03 16:59:00,
2013-05-03 13:14:00,66.4,31.0,30.58,SSW,200,1.0,5.0,27,0.00,,,0.00,weatherlink.com 1.10,2013-05-03 17:14:00,
2013-05-03 13:29:00,69.1,33.0,30.58,SW,215,3.0,6.0,26,0.00,,,0.00,weatherlink.com 1.10,2013-05-03 17:29:00,
2013-05-03 13:44:00,69.7,32.0,30.58,South,172,5.0,7.0,25,0.00,,,0.00,weatherlink.com 1.10,2013-05-03 17:44:00,
2013-05-03 13:59:00,70.4,32.0,30.57,North,350,4.0,8.0,24,0.00,,,0.00,weatherlink.com 1.10,2013-05-03 17:59:00,
2013-05-03 14:14:00,70.4,32.0,30.57,North,5,1.0,7.0,24,0.00,,,0.00,weatherlink.com 1.10,2013-05-03 18:14:00,
2013-05-03 14:29:00,69.8,32.0,30.56,ENE,71,0.0,5.0,25,0.00,,,0.00,weatherlink.com 1.10,2013-05-03 18:29:00,
2013-05-03 14:44:00,71.2,31.0,30.56,WNW,289,12.0,12.0,23,0.00,,,0.00,weatherlink.com 1.10,2013-05-03 18:44:00,
2013-05-03 14:59:00,71.1,31.0,30.55,SSE,165,0.0,6.0,23,0.00,,,0.00,weatherlink.com 1.10,2013-05-03 18:59:00,
2013-05-03 15:14:00,72.5,31.0,30.55,WNW,300,6.0,9.0,22,0.00,,,0.00,weatherlink.com 1.10,2013-05-03 19:14:00,
2013-05-03 15:29:00,71.7,32.0,30.54,NNW,327,2.0,6.0,23,0.00,,,0.00,weatherlink.com 1.10,2013-05-03 19:29:00,
2013-05-03 15:44:00,71.7,32.0,30.54,SW,235,3.0,8.0,23,0.00,,,0.00,weatherlink.com 1.10,2013-05-03 19:44:00,
2013-05-03 15:59:00,71.9,31.0,30.54,NE,55,2.0,6.0,22,0.00,,,0.00,weatherlink.com 1.10,2013-05-03 19:59:00,
2013-05-03 16:14:00,70.7,31.0,30.53,NNW,333,2.0,7.0,23,0.00,,,0.00,weatherlink.com 1.10,2013-05-03 20:14:00,
2013-05-03 16:29:00,71.6,32.0,30.53,NNW,327,1.0,7.0,23,0.00,,,0.00,weatherlink.com 1.10,2013-05-03 20:29:00,
2013-05-03 16:44:00,73.5,33.0,30.52,WSW,243,2.0,6.0,23,0.00,,,0.00,weatherlink.com 1.10,2013-05-03 20:44:00,
2013-05-03 16:59:00,72.2,36.0,30.52,SSW,197,4.0,10.0,27,0.00,,,0.00,weatherlink.com 1.10,2013-05-03 20:59:00,
2013-05-03 17:14:00,69.6,37.0,30.52,ESE,123,1.0,8.0,30,0.00,,,0.00,weatherlink.com 1.10,2013-05-03 21:14:00,
2013-05-03 17:29:00,68.4,38.0,30.52,SSW,194,0.0,7.0,33,0.00,,,0.00,weatherlink.com 1.10,2013-05-03 21:29:00,
2013-05-03 17:44:00,68.2,38.0,30.52,NE,37,3.0,5.0,33,0.00,,,0.00,weatherlink.com 1.10,2013-05-03 21:44:00,
2013-05-03 17:59:00,67.2,39.0,30.52,South,169,3.0,10.0,35,0.00,,,0.00,weatherlink.com 1.10,2013-05-03 21:59:00,
2013-05-03 18:14:00,66.0,39.0,30.52,West,263,1.0,6.0,37,0.00,,,0.00,weatherlink.com 1.10,2013-05-03 22:14:00,
2013-05-03 18:29:00,65.3,40.0,30.52,SSE,147,3.0,9.0,39,0.00,,,0.00,weatherlink.com 1.10,2013-05-03 22:29:00,
2013-05-03 18:44:00,64.1,39.0,30.52,SSW,199,2.0,7.0,40,0.00,,,0.00,weatherlink.com 1.10,2013-05-03 22:44:00,
2013-05-03 18:59:00,62.9,39.0,30.53,ESE,121,2.0,5.0,41,0.00,,,0.00,weatherlink.com 1.10,2013-05-03 22:59:00,
2013-05-03 19:14:00,61.4,39.0,30.53,SSW,196,1.0,5.0,44,0.00,,,0.00,weatherlink.com 1.10,2013-05-03 23:14:00,
2013-05-03 19:29:00,60.3,39.0,30.54,SSW,202,1.0,5.0,45,0.00,,,0.00,weatherlink.com 1.10,2013-05-03 23:29:00,
2013-05-03 19:44:00,59.4,39.0,30.54,SE,141,0.0,5.0,47,0.00,,,0.00,weatherlink.com 1.10,2013-05-03 23:44:00,
2013-05-03 20:00:00,58.6,39.0,30.54,ESE,106,0.0,4.0,48,0.00,,,0.00,weatherlink.com 1.10,2013-05-04 00:00:00,
2013-05-03 20:15:00,57.6,39.0,30.54,ESE,115,0.0,2.0,51,0.00,,,0.00,weatherlink.com 1.10,2013-05-04 00:15:00,
2013-05-03 20:30:00,56.5,40.0,30.55,SSE,163,1.0,2.0,54,0.00,,,0.00,weatherlink.com 1.10,2013-05-04 00:30:00,
2013-05-03 20:45:00,55.6,40.0,30.55,ESE,119,2.0,4.0,57,0.00,,,0.00,weatherlink.com 1.10,2013-05-04 00:45:00,
2013-05-03 21:00:00,55.0,41.0,30.56,SE,132,0.0,3.0,60,0.00,,,0.00,weatherlink.com 1.10,2013-05-04 01:00:00,
2013-05-03 21:15:00,54.2,42.0,30.56,SW,222,0.0,3.0,63,0.00,,,0.00,weatherlink.com 1.10,2013-05-04 01:15:00,
2013-05-03 21:30:00,53.3,42.0,30.56,SW,222,0.0,2.0,65,0.00,,,0.00,weatherlink.com 1.10,2013-05-04 01:30:00,
2013-05-03 21:45:00,52.4,42.0,30.57,SW,222,0.0,2.0,69,0.00,,,0.00,weatherlink.com 1.10,2013-05-04 01:45:00,
2013-05-03 22:00:00,51.6,43.0,30.57,SW,222,0.0,1.0,72,0.00,,,0.00,weatherlink.com 1.10,2013-05-04 02:00:00,
2013-05-03 22:15:00,50.7,43.0,30.57,SW,222,0.0,1.0,74,0.00,,,0.00,weatherlink.com 1.10,2013-05-04 02:15:00,
2013-05-03 22:30:00,49.7,43.0,30.57,SW,222,0.0,0.0,77,0.00,,,0.00,weatherlink.com 1.10,2013-05-04 02:30:00,
2013-05-03 22:45:00,48.8,43.0,30.57,SW,222,0.0,1.0,79,0.00,,,0.00,weatherlink.com 1.10,2013-05-04 02:45:00,
2013-05-03 23:00:00,48.2,43.0,30.56,SW,222,0.0,0.0,81,0.00,,,0.00,weatherlink.com 1.10,2013-05-04 03:00:00,
2013-05-03 23:15:00,47.6,43.0,30.57,SW,222,0.0,1.0,83,0.00,,,0.00,weatherlink.com 1.10,2013-05-04 03:15:00,
2013-05-03 23:30:00,47.1,43.0,30.57,SW,222,0.0,0.0,84,0.00,,,0.00,weatherlink.com 1.10,2013-05-04 03:30:00,
2013-05-03 23:45:00,46.7,43.0,30.57,SW,222,0.0,0.0,85,0.00,,,0.00,weatherlink.com 1.10,2013-05-04 03:45:00,